sensor_id;sensor_type;location;lat;lon;timestamp;pressure;altitude;pressure_sealevel;temperature;humidity
5595;BME280;1003;48.002;7.788;2022-11-15T00:00:51;99347.97;;;11.15;100.00
5595;BME280;1003;48.002;7.788;2022-11-15T00:03:21;99347.91;;;11.21;100.00
5595;BME280;1003;48.002;7.788;2022-11-15T00:05:49;99341.13;;;11.27;100.00
5595;BME280;1003;48.002;7.788;2022-11-15T00:08:17;99337.75;;;11.28;100.00
5595;BME280;1003;48.002;7.788;2022-11-15T00:10:54;99331.03;;;11.30;100.00
5595;BME280;1003;48.002;7.788;2022-11-15T00:13:22;99334.41;;;11.31;100.00
5595;BME280;1003;48.002;7.788;2022-11-15T00:15:51;99332.69;;;11.33;100.00
5595;BME280;1003;48.002;7.788;2022-11-15T00:18:18;99320.13;;;11.32;100.00
5595;BME280;1003;48.002;7.788;2022-11-15T00:20:46;99310.91;;;11.32;100.00
5595;BME280;1003;48.002;7.788;2022-11-15T00:23:13;99318.41;;;11.34;100.00
5595;BME280;1003;48.002;7.788;2022-11-15T00:25:40;99312.59;;;11.32;100.00
5595;BME280;1003;48.002;7.788;2022-11-15T00:28:07;99307.56;;;11.32;100.00
5595;BME280;1003;48.002;7.788;2022-11-15T00:30:34;99308.34;;;11.37;100.00
5595;BME280;1003;48.002;7.788;2022-11-15T00:33:04;99305.75;;;11.41;100.00
5595;BME280;1003;48.002;7.788;2022-11-15T00:35:32;99300.72;;;11.43;100.00
5595;BME280;1003;48.002;7.788;2022-11-15T00:38:00;99298.16;;;11.44;100.00
5595;BME280;1003;48.002;7.788;2022-11-15T00:40:28;99293.09;;;11.49;100.00
5595;BME280;1003;48.002;7.788;2022-11-15T00:42:55;99288.03;;;11.49;100.00
5595;BME280;1003;48.002;7.788;2022-11-15T00:45:22;99288.94;;;11.46;100.00
5595;BME280;1003;48.002;7.788;2022-11-15T00:47:50;99296.44;;;11.48;100.00
5595;BME280;1003;48.002;7.788;2022-11-15T00:50:19;99301.47;;;11.48;100.00
5595;BME280;1003;48.002;7.788;2022-11-15T00:52:46;99304.91;;;11.42;100.00
5595;BME280;1003;48.002;7.788;2022-11-15T00:55:15;99312.59;;;11.32;100.00
5595;BME280;1003;48.002;7.788;2022-11-15T00:57:43;99309.31;;;11.25;100.00
5595;BME280;1003;48.002;7.788;2022-11-15T01:00:11;99314.41;;;11.17;100.00
5595;BME280;1003;48.002;7.788;2022-11-15T01:02:38;99315.28;;;11.15;100.00
5595;BME280;1003;48.002;7.788;2022-11-15T01:05:07;99313.59;;;11.15;100.00
5595;BME280;1003;48.002;7.788;2022-11-15T01:07:35;99310.19;;;11.18;100.00
5595;BME280;1003;48.002;7.788;2022-11-15T01:10:05;99306.78;;;11.23;100.00
5595;BME280;1003;48.002;7.788;2022-11-15T01:12:32;99312.75;;;11.13;100.00
5595;BME280;1003;48.002;7.788;2022-11-15T01:14:59;99332.06;;;11.14;100.00
5595;BME280;1003;48.002;7.788;2022-11-15T01:17:26;99337.97;;;11.09;100.00
5595;BME280;1003;48.002;7.788;2022-11-15T01:19:53;99350.59;;;11.04;100.00
5595;BME280;1003;48.002;7.788;2022-11-15T01:22:21;99360.66;;;11.01;100.00
5595;BME280;1003;48.002;7.788;2022-11-15T01:24:50;99353.19;;;10.92;100.00
5595;BME280;1003;48.002;7.788;2022-11-15T01:27:18;99360.81;;;10.84;100.00
5595;BME280;1003;48.002;7.788;2022-11-15T01:29:45;99365.84;;;10.81;100.00
5595;BME280;1003;48.002;7.788;2022-11-15T01:32:12;99372.63;;;10.77;100.00
5595;BME280;1003;48.002;7.788;2022-11-15T01:34:39;99370.09;;;10.79;100.00
5595;BME280;1003;48.002;7.788;2022-11-15T01:37:06;99367.56;;;10.79;100.00
5595;BME280;1003;48.002;7.788;2022-11-15T01:39:33;99375.09;;;10.79;100.00
5595;BME280;1003;48.002;7.788;2022-11-15T01:42:02;99391.78;;;10.89;100.00
5595;BME280;1003;48.002;7.788;2022-11-15T01:44:47;99399.31;;;10.94;100.00
5595;BME280;1003;48.002;7.788;2022-11-15T01:47:18;99407.69;;;10.94;100.00
5595;BME280;1003;48.002;7.788;2022-11-15T01:49:53;99406.94;;;10.80;100.00
5595;BME280;1003;48.002;7.788;2022-11-15T01:52:26;99421.16;;;10.84;100.00
5595;BME280;1003;48.002;7.788;2022-11-15T01:55:03;99425.44;;;10.73;100.00
5595;BME280;1003;48.002;7.788;2022-11-15T01:57:34;99438.94;;;10.61;100.00
5595;BME280;1003;48.002;7.788;2022-11-15T02:00:04;99452.34;;;10.59;100.00
5595;BME280;1003;48.002;7.788;2022-11-15T02:02:33;99454.91;;;10.43;100.00
5595;BME280;1003;48.002;7.788;2022-11-15T02:05:01;99460.81;;;10.44;100.00
5595;BME280;1003;48.002;7.788;2022-11-15T02:07:29;99472.56;;;10.33;100.00
5595;BME280;1003;48.002;7.788;2022-11-15T02:10:02;99472.59;;;10.27;100.00
5595;BME280;1003;48.002;7.788;2022-11-15T02:12:31;99478.47;;;10.19;100.00
5595;BME280;1003;48.002;7.788;2022-11-15T02:15:00;99472.63;;;10.14;100.00
5595;BME280;1003;48.002;7.788;2022-11-15T02:17:58;99502.75;;;10.10;100.00
5595;BME280;1003;48.002;7.788;2022-11-15T02:21:01;99527.06;;;10.00;100.00
5595;BME280;1003;48.002;7.788;2022-11-15T02:24:34;99542.97;;;10.02;100.00
5595;BME280;1003;48.002;7.788;2022-11-15T02:30:42;99554.72;;;9.95;100.00
5595;BME280;1003;48.002;7.788;2022-11-15T02:33:27;99577.31;;;10.02;100.00
5595;BME280;1003;48.002;7.788;2022-11-15T02:36:00;99583.97;;;10.09;100.00
5595;BME280;1003;48.002;7.788;2022-11-15T02:38:35;99594.84;;;10.17;100.00
5595;BME280;1003;48.002;7.788;2022-11-15T02:41:13;99590.69;;;10.23;100.00
5595;BME280;1003;48.002;7.788;2022-11-15T02:43:48;99591.47;;;10.21;100.00
5595;BME280;1003;48.002;7.788;2022-11-15T02:46:34;99588.13;;;10.20;100.00
5595;BME280;1003;48.002;7.788;2022-11-15T02:49:23;99594.03;;;10.18;100.00
5595;BME280;1003;48.002;7.788;2022-11-15T02:51:51;99598.22;;;10.17;100.00
5595;BME280;1003;48.002;7.788;2022-11-15T02:54:24;99611.56;;;10.16;100.00
5595;BME280;1003;48.002;7.788;2022-11-15T02:56:56;99609.94;;;10.14;100.00
5595;BME280;1003;48.002;7.788;2022-11-15T03:00:09;99611.59;;;10.15;100.00
5595;BME280;1003;48.002;7.788;2022-11-15T03:03:23;99624.16;;;10.18;100.00
5595;BME280;1003;48.002;7.788;2022-11-15T03:06:04;99623.31;;;10.13;100.00
5595;BME280;1003;48.002;7.788;2022-11-15T03:08:45;99636.72;;;10.12;100.00
5595;BME280;1003;48.002;7.788;2022-11-15T03:11:18;99654.28;;;10.16;100.00
5595;BME280;1003;48.002;7.788;2022-11-15T03:13:56;99655.97;;;10.11;100.00
5595;BME280;1003;48.002;7.788;2022-11-15T03:16:30;99661.81;;;10.10;100.00
5595;BME280;1003;48.002;7.788;2022-11-15T03:19:08;99664.34;;;10.12;100.00
5595;BME280;1003;48.002;7.788;2022-11-15T03:21:40;99668.53;;;10.10;100.00
5595;BME280;1003;48.002;7.788;2022-11-15T03:24:08;99670.22;;;10.03;100.00
5595;BME280;1003;48.002;7.788;2022-11-15T03:26:40;99675.22;;;10.09;100.00
5595;BME280;1003;48.002;7.788;2022-11-15T03:29:13;99684.41;;;10.06;100.00
5595;BME280;1003;48.002;7.788;2022-11-15T03:31:45;99686.13;;;10.02;100.00
5595;BME280;1003;48.002;7.788;2022-11-15T03:34:25;99681.94;;;10.07;100.00
5595;BME280;1003;48.002;7.788;2022-11-15T03:36:53;99673.56;;;10.02;100.00
5595;BME280;1003;48.002;7.788;2022-11-15T03:39:22;99677.72;;;10.05;100.00
5595;BME280;1003;48.002;7.788;2022-11-15T03:42:00;99670.19;;;10.05;100.00
5595;BME280;1003;48.002;7.788;2022-11-15T03:44:41;99683.59;;;10.13;100.00
5595;BME280;1003;48.002;7.788;2022-11-15T03:47:16;99680.25;;;10.12;100.00
5595;BME280;1003;48.002;7.788;2022-11-15T03:49:52;99696.16;;;10.11;100.00
5595;BME280;1003;48.002;7.788;2022-11-15T03:52:21;99690.31;;;10.12;100.00
5595;BME280;1003;48.002;7.788;2022-11-15T03:54:52;99689.47;;;10.13;100.00
5595;BME280;1003;48.002;7.788;2022-11-15T03:57:20;99691.13;;;10.08;100.00
5595;BME280;1003;48.002;7.788;2022-11-15T03:59:47;99695.34;;;10.12;100.00
5595;BME280;1003;48.002;7.788;2022-11-15T04:02:14;99677.75;;;10.18;100.00
5595;BME280;1003;48.002;7.788;2022-11-15T04:04:41;99677.72;;;10.17;100.00
5595;BME280;1003;48.002;7.788;2022-11-15T04:07:09;99681.09;;;10.14;100.00
5595;BME280;1003;48.002;7.788;2022-11-15T04:09:37;99670.22;;;10.08;100.00
5595;BME280;1003;48.002;7.788;2022-11-15T04:12:24;99679.41;;;10.04;100.00
5595;BME280;1003;48.002;7.788;2022-11-15T04:14:59;99681.94;;;10.03;100.00
5595;BME280;1003;48.002;7.788;2022-11-15T04:17:38;99688.63;;;9.97;100.00
5595;BME280;1003;48.002;7.788;2022-11-15T04:20:10;99695.31;;;9.97;100.00
5595;BME280;1003;48.002;7.788;2022-11-15T04:22:58;99695.31;;;9.98;100.00
5595;BME280;1003;48.002;7.788;2022-11-15T04:25:44;99697.00;;;9.98;100.00
5595;BME280;1003;48.002;7.788;2022-11-15T04:28:12;99697.00;;;9.98;100.00
5595;BME280;1003;48.002;7.788;2022-11-15T04:30:39;99697.81;;;9.98;100.00
5595;BME280;1003;48.002;7.788;2022-11-15T04:33:06;99701.19;;;9.96;100.00
5595;BME280;1003;48.002;7.788;2022-11-15T04:35:33;99705.38;;;9.97;100.00
5595;BME280;1003;48.002;7.788;2022-11-15T04:38:06;99712.91;;;10.05;100.00
5595;BME280;1003;48.002;7.788;2022-11-15T04:40:34;99713.75;;;10.07;100.00
5595;BME280;1003;48.002;7.788;2022-11-15T04:43:02;99712.06;;;10.10;100.00
5595;BME280;1003;48.002;7.788;2022-11-15T04:45:29;99716.25;;;10.13;100.00
5595;BME280;1003;48.002;7.788;2022-11-15T04:47:56;99717.94;;;10.12;100.00
5595;BME280;1003;48.002;7.788;2022-11-15T04:50:23;99717.09;;;10.12;100.00
5595;BME280;1003;48.002;7.788;2022-11-15T04:52:53;99727.13;;;10.15;100.00
5595;BME280;1003;48.002;7.788;2022-11-15T04:55:21;99720.44;;;10.21;100.00
5595;BME280;1003;48.002;7.788;2022-11-15T04:57:57;99717.13;;;10.24;100.00
5595;BME280;1003;48.002;7.788;2022-11-15T05:00:26;99714.63;;;10.24;100.00
5595;BME280;1003;48.002;7.788;2022-11-15T05:02:54;99715.44;;;10.23;100.00
5595;BME280;1003;48.002;7.788;2022-11-15T05:05:38;99703.69;;;10.22;100.00
5595;BME280;1003;48.002;7.788;2022-11-15T05:08:05;99699.50;;;10.21;100.00
5595;BME280;1003;48.002;7.788;2022-11-15T05:10:34;99692.78;;;10.21;100.00
5595;BME280;1003;48.002;7.788;2022-11-15T05:13:00;99698.69;;;10.27;100.00
5595;BME280;1003;48.002;7.788;2022-11-15T05:15:28;99697.03;;;10.29;100.00
5595;BME280;1003;48.002;7.788;2022-11-15T05:17:58;99699.53;;;10.27;100.00
5595;BME280;1003;48.002;7.788;2022-11-15T05:20:26;99689.47;;;10.25;100.00
5595;BME280;1003;48.002;7.788;2022-11-15T05:22:53;99688.66;;;10.25;100.00
5595;BME280;1003;48.002;7.788;2022-11-15T05:25:21;99682.78;;;10.29;100.00
5595;BME280;1003;48.002;7.788;2022-11-15T05:27:49;99687.81;;;10.34;100.00
5595;BME280;1003;48.002;7.788;2022-11-15T05:30:17;99680.28;;;10.35;100.00
5595;BME280;1003;48.002;7.788;2022-11-15T05:32:44;99676.06;;;10.33;100.00
5595;BME280;1003;48.002;7.788;2022-11-15T05:35:18;99677.75;;;10.34;100.00
5595;BME280;1003;48.002;7.788;2022-11-15T05:37:46;99678.56;;;10.42;100.00
5595;BME280;1003;48.002;7.788;2022-11-15T05:40:15;99665.19;;;10.35;100.00
5595;BME280;1003;48.002;7.788;2022-11-15T05:42:43;99666.88;;;10.32;100.00
5595;BME280;1003;48.002;7.788;2022-11-15T05:45:12;99665.22;;;10.34;100.00
5595;BME280;1003;48.002;7.788;2022-11-15T05:47:40;99660.19;;;10.29;100.00
5595;BME280;1003;48.002;7.788;2022-11-15T05:50:11;99655.16;;;10.24;100.00
5595;BME280;1003;48.002;7.788;2022-11-15T05:52:39;99653.44;;;10.22;100.00
5595;BME280;1003;48.002;7.788;2022-11-15T05:55:08;99647.56;;;10.21;100.00
5595;BME280;1003;48.002;7.788;2022-11-15T05:57:36;99649.28;;;10.22;100.00
5595;BME280;1003;48.002;7.788;2022-11-15T06:00:05;99651.78;;;10.19;100.00
5595;BME280;1003;48.002;7.788;2022-11-15T06:02:35;99654.28;;;10.16;100.00
5595;BME280;1003;48.002;7.788;2022-11-15T06:05:03;99649.28;;;10.13;100.00
5595;BME280;1003;48.002;7.788;2022-11-15T06:07:30;99660.16;;;10.11;100.00
5595;BME280;1003;48.002;7.788;2022-11-15T06:09:57;99649.28;;;10.12;100.00
5595;BME280;1003;48.002;7.788;2022-11-15T06:12:24;99657.66;;;10.12;100.00
5595;BME280;1003;48.002;7.788;2022-11-15T06:14:51;99643.41;;;10.13;100.00
5595;BME280;1003;48.002;7.788;2022-11-15T06:17:18;99651.78;;;10.16;100.00
5595;BME280;1003;48.002;7.788;2022-11-15T06:19:47;99649.28;;;10.12;100.00
5595;BME280;1003;48.002;7.788;2022-11-15T06:22:14;99655.97;;;10.13;100.00
5595;BME280;1003;48.002;7.788;2022-11-15T06:24:41;99653.47;;;10.17;100.00
5595;BME280;1003;48.002;7.788;2022-11-15T06:27:10;99654.31;;;10.18;100.00
5595;BME280;1003;48.002;7.788;2022-11-15T06:29:37;99654.28;;;10.19;100.00
5595;BME280;1003;48.002;7.788;2022-11-15T06:32:05;99662.66;;;10.23;100.00
5595;BME280;1003;48.002;7.788;2022-11-15T06:34:32;99662.69;;;10.26;100.00
5595;BME280;1003;48.002;7.788;2022-11-15T06:37:03;99664.34;;;10.32;100.00
5595;BME280;1003;48.002;7.788;2022-11-15T06:39:30;99676.09;;;10.34;100.00
5595;BME280;1003;48.002;7.788;2022-11-15T06:41:57;99670.22;;;10.40;100.00
5595;BME280;1003;48.002;7.788;2022-11-15T06:44:24;99666.84;;;10.42;100.00
5595;BME280;1003;48.002;7.788;2022-11-15T06:46:51;99671.88;;;10.42;100.00
5595;BME280;1003;48.002;7.788;2022-11-15T06:49:18;99675.22;;;10.41;100.00
5595;BME280;1003;48.002;7.788;2022-11-15T06:51:45;99672.72;;;10.41;100.00
5595;BME280;1003;48.002;7.788;2022-11-15T06:54:13;99676.91;;;10.45;100.00
5595;BME280;1003;48.002;7.788;2022-11-15T06:56:40;99671.03;;;10.43;100.00
5595;BME280;1003;48.002;7.788;2022-11-15T06:59:07;99676.06;;;10.42;100.00
5595;BME280;1003;48.002;7.788;2022-11-15T07:01:34;99670.22;;;10.34;100.00
5595;BME280;1003;48.002;7.788;2022-11-15T07:04:01;99657.66;;;10.14;100.00
5595;BME280;1003;48.002;7.788;2022-11-15T07:06:29;99670.22;;;10.18;100.00
5595;BME280;1003;48.002;7.788;2022-11-15T07:08:56;99670.22;;;10.28;100.00
5595;BME280;1003;48.002;7.788;2022-11-15T07:11:24;99676.94;;;10.35;100.00
5595;BME280;1003;48.002;7.788;2022-11-15T07:13:52;99686.97;;;10.41;100.00
5595;BME280;1003;48.002;7.788;2022-11-15T07:16:19;99692.81;;;10.46;100.00
5595;BME280;1003;48.002;7.788;2022-11-15T07:18:46;99701.16;;;10.54;100.00
5595;BME280;1003;48.002;7.788;2022-11-15T07:21:13;99707.88;;;10.54;100.00
5595;BME280;1003;48.002;7.788;2022-11-15T07:23:40;99724.66;;;10.50;100.00
5595;BME280;1003;48.002;7.788;2022-11-15T07:26:08;99716.25;;;10.57;100.00
5595;BME280;1003;48.002;7.788;2022-11-15T07:28:36;99724.59;;;10.65;100.00
5595;BME280;1003;48.002;7.788;2022-11-15T07:31:05;99720.41;;;10.73;100.00
5595;BME280;1003;48.002;7.788;2022-11-15T07:33:33;99733.81;;;10.82;100.00
5595;BME280;1003;48.002;7.788;2022-11-15T07:36:00;99732.94;;;10.92;100.00
5595;BME280;1003;48.002;7.788;2022-11-15T07:38:29;99741.31;;;10.98;100.00
5595;BME280;1003;48.002;7.788;2022-11-15T07:40:57;99743.81;;;10.97;100.00
5595;BME280;1003;48.002;7.788;2022-11-15T07:43:25;99749.69;;;10.99;100.00
5595;BME280;1003;48.002;7.788;2022-11-15T07:45:54;99758.06;;;11.04;100.00
5595;BME280;1003;48.002;7.788;2022-11-15T07:48:22;99751.38;;;11.01;100.00
5595;BME280;1003;48.002;7.788;2022-11-15T07:50:49;99759.72;;;11.08;100.00
5595;BME280;1003;48.002;7.788;2022-11-15T07:53:16;99761.41;;;11.15;100.00
5595;BME280;1003;48.002;7.788;2022-11-15T07:55:43;99772.25;;;11.33;100.00
5595;BME280;1003;48.002;7.788;2022-11-15T07:58:12;99776.38;;;11.52;100.00
5595;BME280;1003;48.002;7.788;2022-11-15T08:00:39;99779.66;;;11.68;100.00
5595;BME280;1003;48.002;7.788;2022-11-15T08:03:10;99793.00;;;11.83;100.00
5595;BME280;1003;48.002;7.788;2022-11-15T08:05:39;99800.47;;;12.03;100.00
5595;BME280;1003;48.002;7.788;2022-11-15T08:08:08;99816.31;;;12.22;100.00
5595;BME280;1003;48.002;7.788;2022-11-15T08:10:36;99817.88;;;12.39;100.00
5595;BME280;1003;48.002;7.788;2022-11-15T08:13:05;99824.53;;;12.49;100.00
5595;BME280;1003;48.002;7.788;2022-11-15T08:15:34;99817.78;;;12.48;100.00
5595;BME280;1003;48.002;7.788;2022-11-15T08:18:04;99817.75;;;12.52;100.00
5595;BME280;1003;48.002;7.788;2022-11-15T08:20:33;99806.78;;;12.58;100.00
5595;BME280;1003;48.002;7.788;2022-11-15T08:23:03;99800.91;;;12.57;100.00
5595;BME280;1003;48.002;7.788;2022-11-15T08:25:33;99784.03;;;12.64;100.00
5595;BME280;1003;48.002;7.788;2022-11-15T08:28:04;99783.13;;;12.73;100.00
5595;BME280;1003;48.002;7.788;2022-11-15T08:30:36;99781.34;;;12.84;100.00
5595;BME280;1003;48.002;7.788;2022-11-15T08:33:04;99777.81;;;13.00;100.00
5595;BME280;1003;48.002;7.788;2022-11-15T08:35:33;99770.28;;;12.96;100.00
5595;BME280;1003;48.002;7.788;2022-11-15T08:38:00;99756.84;;;12.94;100.00
5595;BME280;1003;48.002;7.788;2022-11-15T08:40:27;99750.03;;;13.00;100.00
5595;BME280;1003;48.002;7.788;2022-11-15T08:42:54;99753.31;;;13.10;100.00
5595;BME280;1003;48.002;7.788;2022-11-15T08:45:21;99744.88;;;13.14;100.00
5595;BME280;1003;48.002;7.788;2022-11-15T08:47:48;99735.56;;;13.19;100.00
5595;BME280;1003;48.002;7.788;2022-11-15T08:50:16;99724.78;;;13.02;100.00
5595;BME280;1003;48.002;7.788;2022-11-15T08:52:45;99715.78;;;12.79;100.00
5595;BME280;1003;48.002;7.788;2022-11-15T08:55:13;99702.59;;;12.53;100.00
5595;BME280;1003;48.002;7.788;2022-11-15T08:57:40;99708.47;;;12.53;100.00
5595;BME280;1003;48.002;7.788;2022-11-15T09:00:09;99720.97;;;12.64;100.00
5595;BME280;1003;48.002;7.788;2022-11-15T09:02:38;99714.22;;;12.69;100.00
5595;BME280;1003;48.002;7.788;2022-11-15T09:05:07;99712.56;;;12.67;100.00
5595;BME280;1003;48.002;7.788;2022-11-15T09:07:34;99721.78;;;12.69;100.00
5595;BME280;1003;48.002;7.788;2022-11-15T09:10:03;99720.19;;;12.59;100.00
5595;BME280;1003;48.002;7.788;2022-11-15T09:12:30;99708.63;;;12.40;100.00
5595;BME280;1003;48.002;7.788;2022-11-15T09:14:57;99720.44;;;12.34;100.00
5595;BME280;1003;48.002;7.788;2022-11-15T09:17:24;99722.06;;;12.40;100.00
5595;BME280;1003;48.002;7.788;2022-11-15T09:19:51;99723.66;;;12.47;100.00
5595;BME280;1003;48.002;7.788;2022-11-15T09:22:18;99726.00;;;12.67;100.00
5595;BME280;1003;48.002;7.788;2022-11-15T09:24:45;99726.78;;;12.75;100.00
5595;BME280;1003;48.002;7.788;2022-11-15T09:27:14;99725.81;;;12.85;100.00
5595;BME280;1003;48.002;7.788;2022-11-15T09:29:41;99718.25;;;12.87;100.00
5595;BME280;1003;48.002;7.788;2022-11-15T09:32:08;99708.94;;;12.91;100.00
5595;BME280;1003;48.002;7.788;2022-11-15T09:34:36;99705.50;;;12.96;100.00
5595;BME280;1003;48.002;7.788;2022-11-15T09:37:03;99697.13;;;12.94;100.00
5595;BME280;1003;48.002;7.788;2022-11-15T09:39:30;99700.41;;;13.02;100.00
5595;BME280;1003;48.002;7.788;2022-11-15T09:42:29;99686.06;;;13.06;100.00
5595;BME280;1003;48.002;7.788;2022-11-15T09:45:18;99682.63;;;13.13;100.00
5595;BME280;1003;48.002;7.788;2022-11-15T09:48:14;99678.56;;;13.00;100.00
5595;BME280;1003;48.002;7.788;2022-11-15T09:50:50;99687.63;;;13.16;100.00
5595;BME280;1003;48.002;7.788;2022-11-15T09:53:26;99683.22;;;13.35;100.00
5595;BME280;1003;48.002;7.788;2022-11-15T09:56:00;99676.72;;;13.12;100.00
5595;BME280;1003;48.002;7.788;2022-11-15T09:58:37;99677.59;;;13.10;100.00
5595;BME280;1003;48.002;7.788;2022-11-15T10:01:16;99679.91;;;13.28;100.00
5595;BME280;1003;48.002;7.788;2022-11-15T10:03:45;99681.38;;;13.46;100.00
5595;BME280;1003;48.002;7.788;2022-11-15T10:06:23;99689.41;;;13.71;100.00
5595;BME280;1003;48.002;7.788;2022-11-15T10:08:58;99687.31;;;13.99;100.00
5595;BME280;1003;48.002;7.788;2022-11-15T10:11:31;99691.09;;;14.26;100.00
5595;BME280;1003;48.002;7.788;2022-11-15T10:14:08;99680.88;;;14.32;100.00
5595;BME280;1003;48.002;7.788;2022-11-15T10:17:09;99657.53;;;14.16;100.00
5595;BME280;1003;48.002;7.788;2022-11-15T10:19:54;99666.19;;;14.53;100.00
5595;BME280;1003;48.002;7.788;2022-11-15T10:22:29;99639.25;;;14.50;100.00
5595;BME280;1003;48.002;7.788;2022-11-15T10:25:18;99620.66;;;14.53;100.00
5595;BME280;1003;48.002;7.788;2022-11-15T10:27:54;99598.84;;;14.45;100.00
5595;BME280;1003;48.002;7.788;2022-11-15T10:30:31;99578.63;;;14.45;100.00
5595;BME280;1003;48.002;7.788;2022-11-15T10:33:19;99551.09;;;14.30;100.00
5595;BME280;1003;48.002;7.788;2022-11-15T10:35:48;99549.31;;;14.35;100.00
5595;BME280;1003;48.002;7.788;2022-11-15T10:38:15;99541.53;;;14.48;100.00
5595;BME280;1003;48.002;7.788;2022-11-15T10:40:42;99535.31;;;14.62;100.00
5595;BME280;1003;48.002;7.788;2022-11-15T10:43:17;99536.78;;;14.73;100.00
5595;BME280;1003;48.002;7.788;2022-11-15T10:45:46;99530.16;;;14.67;100.00
5595;BME280;1003;48.002;7.788;2022-11-15T10:48:24;99489.94;;;14.11;100.00
5595;BME280;1003;48.002;7.788;2022-11-15T10:50:53;99484.75;;;14.19;100.00
5595;BME280;1003;48.002;7.788;2022-11-15T10:53:28;99477.16;;;14.19;100.00
5595;BME280;1003;48.002;7.788;2022-11-15T10:56:02;99483.22;;;14.54;100.00
5595;BME280;1003;48.002;7.788;2022-11-15T10:58:35;99474.06;;;14.47;100.00
5595;BME280;1003;48.002;7.788;2022-11-15T11:01:17;99466.59;;;14.40;100.00
5595;BME280;1003;48.002;7.788;2022-11-15T11:03:58;99462.25;;;14.49;100.00
5595;BME280;1003;48.002;7.788;2022-11-15T11:06:26;99429.16;;;14.17;100.00
5595;BME280;1003;48.002;7.788;2022-11-15T11:08:59;99419.22;;;14.08;100.00
5595;BME280;1003;48.002;7.788;2022-11-15T11:11:45;99428.34;;;14.17;100.00
5595;BME280;1003;48.002;7.788;2022-11-15T11:14:22;99424.47;;;14.39;100.00
5595;BME280;1003;48.002;7.788;2022-11-15T11:16:55;99412.47;;;14.10;100.00
5595;BME280;1003;48.002;7.788;2022-11-15T11:19:48;99414.44;;;13.96;100.00
5595;BME280;1003;48.002;7.788;2022-11-15T11:22:25;99407.28;;;13.75;100.00
5595;BME280;1003;48.002;7.788;2022-11-15T11:25:18;99417.22;;;13.84;100.00
5595;BME280;1003;48.002;7.788;2022-11-15T11:28:05;99436.13;;;14.06;100.00
5595;BME280;1003;48.002;7.788;2022-11-15T11:30:47;99438.28;;;14.25;100.00
5595;BME280;1003;48.002;7.788;2022-11-15T11:33:21;99424.97;;;14.16;100.00
5595;BME280;1003;48.002;7.788;2022-11-15T11:36:02;99411.72;;;14.04;100.00
5595;BME280;1003;48.002;7.788;2022-11-15T11:38:49;99425.09;;;14.10;100.00
5595;BME280;1003;48.002;7.788;2022-11-15T11:41:31;99424.75;;;14.27;100.00
5595;BME280;1003;48.002;7.788;2022-11-15T11:44:17;99433.63;;;14.45;100.00
5595;BME280;1003;48.002;7.788;2022-11-15T11:46:55;99418.81;;;14.28;100.00
5595;BME280;1003;48.002;7.788;2022-11-15T11:49:31;99415.06;;;14.48;100.00
5595;BME280;1003;48.002;7.788;2022-11-15T11:52:08;99431.72;;;14.93;100.00
5595;BME280;1003;48.002;7.788;2022-11-15T11:55:02;99408.63;;;15.06;100.00
5595;BME280;1003;48.002;7.788;2022-11-15T11:57:39;99377.94;;;14.47;100.00
5595;BME280;1003;48.002;7.788;2022-11-15T12:00:19;99375.69;;;14.34;100.00
5595;BME280;1003;48.002;7.788;2022-11-15T12:03:04;99385.63;;;14.43;100.00
5595;BME280;1003;48.002;7.788;2022-11-15T12:05:41;99384.63;;;14.51;100.00
5595;BME280;1003;48.002;7.788;2022-11-15T12:08:30;99382.53;;;14.69;100.00
5595;BME280;1003;48.002;7.788;2022-11-15T12:11:10;99367.19;;;14.38;100.00
5595;BME280;1003;48.002;7.788;2022-11-15T12:13:40;99377.81;;;14.53;100.00
5595;BME280;1003;48.002;7.788;2022-11-15T12:16:14;99382.97;;;14.50;100.00
5595;BME280;1003;48.002;7.788;2022-11-15T12:18:49;99377.81;;;14.53;100.00
5595;BME280;1003;48.002;7.788;2022-11-15T12:21:27;99369.09;;;14.29;100.00
5595;BME280;1003;48.002;7.788;2022-11-15T12:24:02;99374.94;;;14.31;100.00
5595;BME280;1003;48.002;7.788;2022-11-15T12:26:37;99376.72;;;14.26;100.00
5595;BME280;1003;48.002;7.788;2022-11-15T12:29:26;99382.47;;;14.34;100.00
5595;BME280;1003;48.002;7.788;2022-11-15T12:31:57;99377.59;;;14.26;100.00
5595;BME280;1003;48.002;7.788;2022-11-15T12:34:43;99379.63;;;14.09;100.00
5595;BME280;1003;48.002;7.788;2022-11-15T12:37:47;99384.81;;;14.03;100.00
5595;BME280;1003;48.002;7.788;2022-11-15T12:40:30;99393.13;;;14.08;100.00
5595;BME280;1003;48.002;7.788;2022-11-15T12:43:10;99396.47;;;14.10;100.00
5595;BME280;1003;48.002;7.788;2022-11-15T12:45:52;99390.47;;;14.14;100.00
5595;BME280;1003;48.002;7.788;2022-11-15T12:48:56;99381.44;;;14.02;100.00
5595;BME280;1003;48.002;7.788;2022-11-15T12:52:04;99385.72;;;14.00;100.00
5595;BME280;1003;48.002;7.788;2022-11-15T12:55:00;99393.28;;;14.00;100.00
5595;BME280;1003;48.002;7.788;2022-11-15T12:57:40;99391.50;;;14.04;100.00
5595;BME280;1003;48.002;7.788;2022-11-15T13:00:43;99395.59;;;14.11;100.00
5595;BME280;1003;48.002;7.788;2022-11-15T13:03:28;99397.31;;;14.10;100.00
5595;BME280;1003;48.002;7.788;2022-11-15T13:06:09;99392.19;;;14.12;
5595;BME280;1003;48.002;7.788;2022-11-15T13:08:50;99398.19;;;14.08;100.00
5595;BME280;1003;48.002;7.788;2022-11-15T13:11:51;99385.13;;;13.87;100.00
5595;BME280;1003;48.002;7.788;2022-11-15T13:14:46;99383.38;;;13.91;100.00
5595;BME280;1003;48.002;7.788;2022-11-15T13:17:31;99381.88;;;13.81;100.00
5595;BME280;1003;48.002;7.788;2022-11-15T13:20:25;99392.94;;;13.75;100.00
5595;BME280;1003;48.002;7.788;2022-11-15T13:23:01;99398.91;;;13.71;100.00
5595;BME280;1003;48.002;7.788;2022-11-15T13:26:12;99395.59;;;13.69;100.00
5595;BME280;1003;48.002;7.788;2022-11-15T13:28:44;99397.34;;;13.65;100.00
5595;BME280;1003;48.002;7.788;2022-11-15T13:31:25;99399.91;;;13.64;100.00
5595;BME280;1003;48.002;7.788;2022-11-15T13:33:59;99385.69;;;13.58;100.00
5595;BME280;1003;48.002;7.788;2022-11-15T13:36:30;99379.94;;;13.52;100.00
5595;BME280;1003;48.002;7.788;2022-11-15T13:39:02;99385.09;;;13.46;100.00
5595;BME280;1003;48.002;7.788;2022-11-15T13:41:32;99391.19;;;13.35;100.00
5595;BME280;1003;48.002;7.788;2022-11-15T13:44:03;99403.91;;;13.29;100.00
5595;BME280;1003;48.002;7.788;2022-11-15T13:46:31;99412.22;;;13.34;100.00
5595;BME280;1003;48.002;7.788;2022-11-15T13:49:02;99408.22;;;13.23;100.00